createdAt,value
2017-07-03T00:02:22.713Z,81.80
2017-07-03T00:04:49.677Z,81.40
2017-07-03T00:07:16.561Z,81.10
2017-07-03T00:09:43.574Z,80.90
2017-07-03T00:12:10.493Z,80.70
2017-07-03T00:14:37.462Z,80.40
2017-07-03T00:17:04.410Z,80.70
2017-07-03T00:19:31.367Z,80.90
2017-07-03T00:21:58.655Z,79.90
2017-07-03T00:24:25.542Z,79.90
2017-07-03T00:26:52.501Z,80.10
2017-07-03T00:29:19.381Z,79.90
2017-07-03T00:31:46.300Z,79.90
2017-07-03T00:34:13.249Z,79.80
2017-07-03T00:36:40.153Z,79.00
2017-07-03T00:39:07.098Z,78.80
2017-07-03T00:41:34.057Z,78.90
2017-07-03T00:44:01.338Z,79.00
2017-07-03T00:46:28.222Z,79.00
2017-07-03T00:48:55.163Z,79.00
2017-07-03T00:51:22.137Z,79.30
2017-07-03T00:53:49.094Z,78.60
2017-07-03T00:56:16.050Z,78.60
2017-07-03T00:58:43.385Z,78.80
2017-07-03T01:01:10.265Z,78.80
2017-07-03T01:03:37.205Z,78.60
2017-07-03T01:06:04.127Z,78.80
2017-07-03T01:08:31.418Z,79.10
2017-07-03T01:10:58.425Z,79.20
2017-07-03T01:13:25.305Z,79.00
2017-07-03T01:15:52.189Z,78.60
2017-07-03T01:18:19.121Z,78.70
2017-07-03T01:20:46.004Z,78.90
2017-07-03T01:23:12.909Z,79.10
2017-07-03T01:25:39.893Z,79.00
2017-07-03T01:28:06.858Z,79.20
2017-07-03T01:30:34.197Z,79.40
2017-07-03T01:33:01.159Z,79.40
2017-07-03T01:35:28.062Z,79.70
2017-07-03T01:37:54.942Z,79.70
2017-07-03T01:40:22.267Z,79.50
2017-07-03T01:42:49.149Z,79.50
2017-07-03T01:45:16.488Z,79.80
2017-07-03T01:47:43.438Z,79.80
2017-07-03T01:50:10.322Z,79.60
2017-07-03T01:52:37.232Z,79.90
2017-07-03T01:55:04.167Z,80.00
2017-07-03T01:57:31.450Z,80.00
2017-07-03T01:59:58.333Z,80.00
2017-07-03T02:02:25.295Z,79.50
2017-07-03T02:04:52.351Z,79.70
2017-07-03T02:07:19.638Z,80.50
2017-07-03T02:09:46.562Z,80.50
2017-07-03T02:12:13.845Z,80.30
2017-07-03T02:14:40.725Z,80.30
2017-07-03T02:17:07.690Z,80.60
2017-07-03T02:19:34.577Z,80.60
2017-07-03T02:22:01.479Z,80.80
2017-07-03T02:24:28.406Z,80.90
2017-07-03T02:26:55.392Z,80.90
2017-07-03T02:29:22.733Z,80.60
2017-07-03T02:31:50.080Z,80.40
2017-07-03T02:34:17.358Z,80.90
2017-07-03T02:36:44.276Z,80.90
2017-07-03T02:39:11.197Z,80.80
2017-07-03T02:41:38.079Z,80.50
2017-07-03T02:44:05.429Z,81.20
2017-07-03T02:46:32.790Z,81.30
2017-07-03T02:49:00.069Z,81.50
2017-07-03T02:51:26.949Z,81.50
2017-07-03T02:53:53.966Z,81.20
2017-07-03T02:56:20.850Z,81.30
2017-07-03T02:58:47.815Z,81.30
2017-07-03T03:01:14.768Z,81.10
2017-07-03T03:03:42.113Z,81.50
2017-07-03T03:06:09.008Z,81.50
2017-07-03T03:08:36.016Z,81.50
2017-07-03T03:11:03.386Z,80.50
2017-07-03T03:13:30.666Z,80.50
2017-07-03T03:15:57.593Z,80.50
2017-07-03T03:18:24.513Z,81.10
2017-07-03T03:20:51.481Z,80.70
2017-07-03T03:23:18.501Z,80.60
2017-07-03T03:25:45.385Z,80.90
2017-07-03T03:28:12.293Z,80.90
2017-07-03T03:30:39.256Z,81.50
2017-07-03T03:33:06.597Z,81.50
2017-07-03T03:35:33.482Z,81.50
2017-07-03T03:38:00.398Z,81.30
2017-07-03T03:40:27.352Z,81.30
2017-07-03T03:42:54.276Z,81.30
2017-07-03T03:45:21.609Z,81.10
2017-07-03T03:47:48.577Z,81.10
2017-07-03T03:50:15.930Z,80.70
2017-07-03T03:52:42.981Z,80.70
2017-07-03T03:55:09.938Z,80.60
2017-07-03T03:57:37.213Z,80.20
2017-07-03T04:00:04.154Z,80.20
2017-07-03T04:02:31.067Z,80.40
2017-07-03T04:04:58.016Z,80.50
2017-07-03T04:07:24.943Z,80.40
2017-07-03T04:09:51.918Z,80.30
2017-07-03T04:12:19.266Z,79.70
2017-07-03T04:14:46.197Z,79.70
2017-07-03T04:17:13.086Z,79.70
2017-07-03T04:19:40.001Z,79.70
2017-07-03T04:22:06.945Z,79.90
2017-07-03T04:24:33.894Z,79.70
2017-07-03T04:27:00.798Z,79.70
2017-07-03T04:29:27.720Z,79.70
2017-07-03T04:31:54.610Z,78.90
2017-07-03T04:34:21.935Z,78.50
2017-07-03T04:36:48.930Z,78.50
2017-07-03T04:39:15.881Z,79.00
2017-07-03T04:41:43.233Z,79.00
2017-07-03T04:44:10.190Z,79.00
2017-07-03T04:46:37.537Z,78.90
2017-07-03T04:49:04.442Z,78.90
2017-07-03T04:51:31.369Z,79.10
2017-07-03T04:53:58.269Z,79.40
2017-07-03T04:56:25.221Z,79.10
2017-07-03T04:58:52.146Z,79.70
2017-07-03T05:01:19.115Z,79.50
2017-07-03T05:03:46.062Z,78.90
2017-07-03T05:06:12.997Z,78.10
2017-07-03T05:08:39.955Z,77.60
2017-07-03T05:11:07.255Z,76.70
2017-07-03T05:13:35.078Z,76.70
2017-07-03T05:16:02.358Z,76.60
2017-07-03T05:18:29.273Z,76.60
2017-07-03T05:20:56.217Z,76.70
2017-07-03T05:23:23.124Z,76.70
2017-07-03T05:25:50.109Z,76.30
2017-07-03T05:28:17.052Z,76.00
2017-07-03T05:30:43.938Z,75.20
2017-07-03T05:33:10.864Z,74.30
2017-07-03T05:35:37.906Z,74.60
2017-07-03T05:38:05.264Z,73.40
2017-07-03T05:40:32.609Z,73.50
2017-07-03T05:42:59.558Z,73.50
2017-07-03T05:45:26.617Z,74.00
2017-07-03T05:47:53.962Z,73.60
2017-07-03T05:50:20.907Z,73.60
2017-07-03T05:52:47.789Z,72.90
2017-07-03T05:55:14.665Z,72.20
2017-07-03T05:57:41.645Z,72.50
2017-07-03T06:00:08.544Z,71.70
2017-07-03T06:02:35.533Z,71.90
2017-07-03T06:05:02.494Z,71.70
2017-07-03T06:07:29.815Z,69.80
2017-07-03T06:09:56.792Z,69.80
2017-07-03T06:12:24.142Z,69.00
2017-07-03T06:14:51.425Z,68.90
2017-07-03T06:17:18.345Z,68.90
2017-07-03T06:19:45.662Z,69.30
2017-07-03T06:22:12.644Z,69.30
2017-07-03T06:24:39.593Z,68.90
2017-07-03T06:27:06.513Z,68.00
2017-07-03T06:29:33.805Z,68.10
2017-07-03T06:32:00.699Z,68.10
2017-07-03T06:34:27.687Z,67.70
2017-07-03T06:36:54.599Z,67.80
2017-07-03T06:39:21.879Z,67.30
2017-07-03T06:41:48.886Z,67.30
2017-07-03T06:44:15.842Z,67.10
2017-07-03T06:46:43.125Z,66.00
2017-07-03T06:49:10.049Z,66.10
2017-07-03T06:51:37.333Z,66.60
2017-07-03T06:54:04.229Z,66.60
2017-07-03T06:56:31.161Z,65.80
2017-07-03T06:58:58.054Z,65.70
2017-07-03T07:01:24.938Z,66.20
2017-07-03T07:03:51.877Z,65.90
2017-07-03T07:06:18.769Z,66.20
2017-07-03T07:08:46.122Z,65.40
2017-07-03T07:11:13.480Z,66.20
2017-07-03T07:13:40.757Z,66.70
2017-07-03T07:16:07.648Z,66.70
2017-07-03T07:18:34.590Z,66.50
2017-07-03T07:21:01.485Z,66.10
2017-07-03T07:23:28.826Z,66.10
2017-07-03T07:25:56.149Z,65.60
2017-07-03T07:28:23.044Z,65.60
2017-07-03T07:30:49.939Z,65.90
2017-07-03T07:33:16.861Z,66.60
2017-07-03T07:35:43.762Z,65.90
2017-07-03T07:38:11.041Z,66.70
2017-07-03T07:40:38.070Z,66.70
2017-07-03T07:43:05.418Z,66.90
2017-07-03T07:45:32.302Z,66.90
2017-07-03T07:47:59.359Z,65.70
2017-07-03T07:50:26.237Z,66.10
2017-07-03T07:52:53.200Z,65.90
2017-07-03T07:55:20.150Z,66.50
2017-07-03T07:57:47.061Z,66.70
2017-07-03T08:00:13.953Z,66.90
2017-07-03T08:02:40.886Z,66.90
2017-07-03T08:05:07.779Z,66.10
2017-07-03T08:07:34.661Z,66.20
2017-07-03T08:10:01.637Z,66.70
2017-07-03T08:12:28.973Z,66.00
2017-07-03T08:14:55.934Z,66.00
2017-07-03T08:17:23.587Z,68.00
2017-07-03T08:19:50.474Z,67.90
2017-07-03T08:22:17.367Z,68.10
2017-07-03T08:24:44.282Z,67.90
2017-07-03T08:27:11.165Z,67.20
2017-07-03T08:29:38.113Z,67.70
2017-07-03T08:32:05.108Z,67.00
2017-07-03T08:34:31.982Z,66.60
2017-07-03T08:36:58.871Z,66.50
2017-07-03T08:39:26.222Z,66.30
2017-07-03T08:41:53.571Z,66.10
2017-07-03T08:44:20.851Z,66.70
2017-07-03T08:46:47.769Z,66.80
2017-07-03T08:49:14.656Z,66.30
2017-07-03T08:51:41.542Z,67.80
2017-07-03T08:54:08.507Z,68.90
2017-07-03T08:56:35.446Z,69.50
2017-07-03T08:59:02.393Z,69.30
2017-07-03T09:01:29.338Z,68.30
2017-07-03T09:03:56.223Z,68.50
2017-07-03T09:06:23.117Z,67.80
2017-07-03T09:08:50.081Z,68.00
2017-07-03T09:11:16.984Z,66.80
2017-07-03T09:13:43.882Z,67.40
2017-07-03T09:16:11.318Z,65.80
2017-07-03T09:18:38.280Z,65.80
2017-07-03T09:21:05.655Z,65.20
2017-07-03T09:23:32.674Z,65.20
2017-07-03T09:25:59.626Z,65.20
2017-07-03T09:28:26.608Z,64.80
2017-07-03T09:30:53.549Z,63.70
2017-07-03T09:33:20.434Z,65.30
2017-07-03T09:35:47.329Z,65.40
2017-07-03T09:38:14.298Z,64.00
2017-07-03T09:40:41.579Z,65.60
2017-07-03T09:43:08.494Z,65.60
2017-07-03T09:45:35.845Z,63.30
2017-07-03T09:48:02.806Z,63.30
2017-07-03T09:50:29.765Z,62.90
2017-07-03T09:52:56.829Z,63.90
2017-07-03T09:55:23.705Z,64.50
2017-07-03T09:57:50.587Z,63.90
2017-07-03T10:00:17.522Z,64.70
2017-07-03T10:02:44.482Z,65.10
2017-07-03T10:05:11.786Z,64.70
2017-07-03T10:07:38.777Z,64.70
2017-07-03T10:10:05.729Z,63.40
2017-07-03T10:12:33.114Z,64.40
2017-07-03T10:15:00.047Z,64.40
2017-07-03T10:17:27.342Z,65.60
2017-07-03T10:19:54.330Z,65.60
2017-07-03T10:22:21.253Z,64.10
2017-07-03T10:24:48.145Z,63.90
2017-07-03T10:27:15.042Z,62.50
2017-07-03T10:29:42.009Z,63.20
2017-07-03T10:32:08.957Z,63.30
2017-07-03T10:34:35.862Z,62.90
2017-07-03T10:37:02.866Z,60.70
2017-07-03T10:39:30.224Z,60.20
2017-07-03T10:41:57.521Z,60.80
2017-07-03T10:44:24.482Z,60.70
2017-07-03T10:46:51.453Z,61.20
2017-07-03T10:49:18.350Z,59.70
2017-07-03T10:51:45.282Z,60.10
2017-07-03T10:54:12.166Z,61.20
2017-07-03T10:56:39.081Z,57.90
2017-07-03T10:59:06.091Z,58.10
2017-07-03T11:01:33.036Z,56.50
2017-07-03T11:04:00.326Z,58.30
2017-07-03T11:06:27.274Z,58.20
2017-07-03T11:08:54.185Z,56.40
2017-07-03T11:11:21.472Z,57.60
2017-07-03T11:13:48.493Z,57.60
2017-07-03T11:16:15.401Z,58.10
2017-07-03T11:18:42.290Z,59.00
2017-07-03T11:21:09.598Z,57.70
2017-07-03T11:23:36.574Z,57.70
2017-07-03T11:26:03.545Z,56.10
2017-07-03T11:28:30.577Z,57.00
2017-07-03T11:30:57.882Z,58.30
2017-07-03T11:33:24.810Z,58.30
2017-07-03T11:35:51.862Z,57.00
2017-07-03T11:38:18.750Z,56.50
2017-07-03T11:40:45.717Z,56.10
2017-07-03T11:43:13.091Z,54.30
2017-07-03T11:45:39.970Z,54.30
2017-07-03T11:48:06.849Z,54.10
2017-07-03T11:50:33.847Z,54.80
2017-07-03T11:53:00.729Z,55.30
2017-07-03T11:55:27.739Z,55.50
2017-07-03T11:57:54.745Z,56.00
2017-07-03T12:00:21.630Z,56.20
2017-07-03T12:02:48.521Z,53.60
2017-07-03T12:05:15.455Z,54.40
2017-07-03T12:07:42.434Z,54.10
2017-07-03T12:10:09.378Z,54.90
2017-07-03T12:12:36.442Z,55.20
2017-07-03T12:15:03.802Z,55.30
2017-07-03T12:17:30.741Z,55.30
2017-07-03T12:19:58.086Z,54.00
2017-07-03T12:22:25.370Z,52.80
2017-07-03T12:24:52.388Z,52.80
2017-07-03T12:27:19.337Z,53.30
2017-07-03T12:29:46.630Z,53.20
2017-07-03T12:32:13.533Z,53.20
2017-07-03T12:34:40.937Z,53.40
2017-07-03T12:37:07.837Z,53.40
2017-07-03T12:39:35.125Z,52.80
2017-07-03T12:42:02.129Z,52.80
2017-07-03T12:44:29.021Z,53.00
2017-07-03T12:46:55.904Z,52.70
2017-07-03T12:49:22.827Z,52.00
2017-07-03T12:51:49.721Z,52.90
2017-07-03T12:54:17.011Z,54.70
2017-07-03T12:56:44.062Z,54.70
2017-07-03T12:59:10.971Z,54.20
2017-07-03T13:01:38.272Z,51.80
2017-07-03T13:04:05.315Z,51.80
2017-07-03T13:06:32.193Z,51.40
2017-07-03T13:08:59.161Z,50.70
2017-07-03T13:11:26.488Z,51.10
2017-07-03T13:13:53.464Z,51.10
2017-07-03T13:16:20.351Z,51.30
2017-07-03T13:18:47.312Z,51.30
2017-07-03T13:21:14.666Z,51.90
2017-07-03T13:23:41.954Z,51.80
2017-07-03T13:26:08.907Z,51.80
2017-07-03T13:28:35.808Z,51.10
2017-07-03T13:31:03.082Z,51.20
2017-07-03T13:33:30.109Z,51.20
2017-07-03T13:35:56.990Z,51.40
2017-07-03T13:38:23.915Z,51.40
2017-07-03T13:40:51.266Z,52.20
2017-07-03T13:43:18.556Z,51.20
2017-07-03T13:45:45.552Z,51.20
2017-07-03T13:48:12.501Z,51.50
2017-07-03T13:50:39.877Z,51.60
2017-07-03T13:53:07.165Z,52.20
2017-07-03T13:55:34.090Z,52.20
2017-07-03T13:58:01.002Z,52.80
2017-07-03T14:00:27.946Z,53.40
2017-07-03T14:02:54.894Z,51.40
2017-07-03T14:05:21.837Z,51.20
2017-07-03T14:07:48.832Z,50.90
2017-07-03T14:10:15.838Z,50.30
2017-07-03T14:12:42.781Z,51.10
2017-07-03T14:15:09.738Z,50.80
2017-07-03T14:17:36.677Z,50.40
2017-07-03T14:20:04.029Z,50.40
2017-07-03T14:22:30.922Z,50.40
2017-07-03T14:24:57.895Z,50.90
2017-07-03T14:27:24.765Z,51.00
2017-07-03T14:29:51.649Z,50.90
2017-07-03T14:32:18.577Z,51.30
2017-07-03T14:34:45.959Z,52.40
2017-07-03T14:37:12.842Z,52.40
2017-07-03T14:39:39.787Z,52.00
2017-07-03T14:42:06.757Z,52.00
2017-07-03T14:44:34.046Z,52.20
2017-07-03T14:47:00.990Z,52.20
2017-07-03T14:49:27.910Z,52.30
2017-07-03T14:51:55.193Z,52.20
2017-07-03T14:54:22.124Z,52.20
2017-07-03T14:56:49.469Z,51.40
2017-07-03T14:59:16.822Z,50.20
2017-07-03T15:01:44.169Z,50.80
2017-07-03T15:04:11.126Z,50.80
2017-07-03T15:06:38.465Z,50.80
2017-07-03T15:09:05.422Z,50.80
2017-07-03T15:11:32.705Z,51.10
2017-07-03T15:13:59.613Z,51.10
2017-07-03T15:16:26.570Z,50.30
2017-07-03T15:18:53.859Z,50.50
2017-07-03T15:21:20.766Z,50.50
2017-07-03T15:23:47.809Z,50.90
2017-07-03T15:26:14.757Z,51.30
2017-07-03T15:28:41.657Z,50.60
2017-07-03T15:31:08.585Z,49.80
2017-07-03T15:33:35.494Z,48.70
2017-07-03T15:36:02.442Z,49.00
2017-07-03T15:38:29.374Z,48.60
2017-07-03T15:40:56.341Z,48.70
2017-07-03T15:43:23.637Z,48.20
2017-07-03T15:45:50.566Z,48.20
2017-07-03T15:48:17.461Z,49.10
2017-07-03T15:50:44.686Z,48.50
2017-07-03T15:53:11.658Z,48.40
2017-07-03T15:55:38.542Z,48.60
2017-07-03T15:58:05.834Z,49.90
2017-07-03T16:00:32.889Z,49.90
2017-07-03T16:02:59.789Z,49.40
2017-07-03T16:05:27.125Z,50.30
2017-07-03T16:07:54.174Z,50.30
2017-07-03T16:10:21.122Z,49.80
2017-07-03T16:12:48.014Z,49.80
2017-07-03T16:15:15.019Z,49.00
2017-07-03T16:17:42.371Z,49.00
2017-07-03T16:20:09.349Z,49.10
2017-07-03T16:22:36.285Z,49.00
2017-07-03T16:25:03.574Z,49.80
2017-07-03T16:27:30.618Z,49.80
2017-07-03T16:29:57.623Z,50.20
2017-07-03T16:32:24.901Z,48.70
2017-07-03T16:34:51.792Z,48.70
2017-07-03T16:37:18.761Z,48.40
2017-07-03T16:39:45.666Z,48.30
2017-07-03T16:42:12.651Z,46.40
2017-07-03T16:44:39.605Z,46.90
2017-07-03T16:47:06.590Z,49.20
2017-07-03T16:49:33.470Z,50.10
2017-07-03T16:52:00.484Z,51.10
2017-07-03T16:54:27.358Z,51.50
2017-07-03T16:56:54.245Z,51.00
2017-07-03T16:59:21.170Z,51.10
2017-07-03T17:01:48.050Z,50.90
2017-07-03T17:04:14.971Z,51.10
2017-07-03T17:06:42.305Z,51.60
2017-07-03T17:09:09.270Z,51.60
2017-07-03T17:11:36.215Z,51.60
2017-07-03T17:14:03.173Z,52.60
2017-07-03T17:16:30.563Z,53.30
2017-07-03T17:18:57.472Z,53.30
2017-07-03T17:21:24.821Z,53.80
2017-07-03T17:23:51.808Z,53.80
2017-07-03T17:26:18.759Z,53.80
2017-07-03T17:28:45.760Z,54.00
2017-07-03T17:31:12.647Z,54.10
2017-07-03T17:33:39.569Z,54.10
2017-07-03T17:36:06.945Z,54.10
2017-07-03T17:38:33.838Z,54.20
2017-07-03T17:41:00.805Z,54.40
2017-07-03T17:43:27.751Z,54.30
2017-07-03T17:45:54.714Z,54.20
2017-07-03T17:48:22.040Z,54.80
2017-07-03T17:50:48.999Z,54.80
2017-07-03T17:53:15.949Z,54.30
2017-07-03T17:55:43.329Z,53.40
2017-07-03T17:58:10.246Z,53.40
2017-07-03T18:00:37.650Z,52.60
2017-07-03T18:03:04.553Z,52.60
2017-07-03T18:05:31.906Z,53.00
2017-07-03T18:07:59.206Z,52.80
2017-07-03T18:10:26.147Z,52.80
2017-07-03T18:12:53.147Z,53.20
2017-07-03T18:15:20.096Z,53.20
2017-07-03T18:17:47.045Z,53.70
2017-07-03T18:20:14.050Z,54.20
2017-07-03T18:22:40.938Z,54.30
2017-07-03T18:25:07.943Z,54.10
2017-07-03T18:27:34.872Z,54.00
2017-07-03T18:30:01.792Z,53.80
2017-07-03T18:32:29.077Z,53.90
2017-07-03T18:34:56.013Z,53.90
2017-07-03T18:37:22.921Z,54.40
2017-07-03T18:39:49.815Z,54.20
2017-07-03T18:42:16.729Z,54.00
2017-07-03T18:44:44.148Z,54.60
2017-07-03T18:47:11.128Z,54.60
2017-07-03T18:49:38.494Z,54.80
2017-07-03T18:52:05.834Z,54.70
2017-07-03T18:54:32.782Z,54.80
2017-07-03T18:56:59.798Z,54.80
2017-07-03T18:59:26.674Z,54.90
2017-07-03T19:01:53.996Z,55.10
2017-07-03T19:04:20.890Z,55.10
2017-07-03T19:06:48.168Z,54.80
2017-07-03T19:09:15.082Z,54.80
2017-07-03T19:11:42.430Z,55.70
2017-07-03T19:14:09.430Z,55.70
2017-07-03T19:16:36.418Z,55.90
2017-07-03T19:19:03.404Z,56.00
2017-07-03T19:21:30.326Z,55.90
2017-07-03T19:23:57.670Z,56.40
2017-07-03T19:26:24.618Z,56.40
2017-07-03T19:28:51.902Z,56.60
2017-07-03T19:31:18.842Z,56.60
2017-07-03T19:33:46.180Z,56.70
2017-07-03T19:36:13.467Z,57.00
2017-07-03T19:38:40.413Z,56.90
2017-07-03T19:41:07.331Z,57.10
2017-07-03T19:43:34.619Z,57.30
2017-07-03T19:46:01.509Z,57.30
2017-07-03T19:48:28.437Z,57.40
2017-07-03T19:50:55.330Z,57.50
2017-07-03T19:53:22.619Z,57.50
2017-07-03T19:55:49.610Z,57.50
2017-07-03T19:58:16.518Z,57.60
2017-07-03T20:00:43.408Z,57.80
2017-07-03T20:03:10.788Z,58.00
2017-07-03T20:05:37.673Z,58.00
2017-07-03T20:08:04.590Z,58.00
2017-07-03T20:10:31.515Z,58.10
2017-07-03T20:12:58.406Z,58.30
2017-07-03T20:15:25.390Z,58.50
2017-07-03T20:17:52.352Z,58.60
2017-07-03T20:20:19.725Z,58.90
2017-07-03T20:22:46.738Z,58.80
2017-07-03T20:25:13.669Z,58.90
2017-07-03T20:27:40.639Z,58.80
2017-07-03T20:30:07.937Z,59.20
2017-07-03T20:32:34.933Z,59.20
2017-07-03T20:35:01.907Z,59.60
2017-07-03T20:37:28.826Z,59.80
2017-07-03T20:39:55.773Z,59.30
2017-07-03T20:42:22.653Z,59.50
2017-07-03T20:44:49.542Z,59.60
2017-07-03T20:47:16.482Z,59.70
2017-07-03T20:49:43.374Z,60.00
2017-07-03T20:52:10.650Z,60.00
2017-07-03T20:54:37.659Z,60.00
2017-07-03T20:57:05.009Z,60.30
2017-07-03T20:59:31.910Z,60.30
2017-07-03T21:01:58.908Z,60.50
2017-07-03T21:04:26.283Z,61.30
2017-07-03T21:06:53.650Z,61.20
2017-07-03T21:09:20.662Z,61.20
2017-07-03T21:11:47.613Z,61.50
2017-07-03T21:14:14.505Z,61.20
2017-07-03T21:16:41.505Z,60.70
2017-07-03T21:19:08.392Z,61.00
2017-07-03T21:21:35.298Z,61.20
2017-07-03T21:24:02.286Z,60.90
2017-07-03T21:26:29.173Z,61.20
2017-07-03T21:28:56.058Z,61.00
2017-07-03T21:31:22.988Z,60.90
2017-07-03T21:33:50.335Z,60.60
2017-07-03T21:36:17.242Z,60.60
2017-07-03T21:38:44.154Z,61.20
2017-07-03T21:41:11.065Z,61.30
2017-07-03T21:43:37.949Z,61.40
2017-07-03T21:46:05.065Z,62.10
2017-07-03T21:48:31.952Z,61.60
2017-07-03T21:50:58.836Z,62.60
2017-07-03T21:53:25.806Z,63.00
2017-07-03T21:55:52.687Z,62.90
2017-07-03T21:58:19.601Z,62.80
2017-07-03T22:00:46.946Z,63.10
2017-07-03T22:03:13.854Z,63.20
2017-07-03T22:05:40.733Z,63.10
2017-07-03T22:08:07.682Z,63.10
2017-07-03T22:10:35.358Z,63.20
2017-07-03T22:13:02.711Z,63.20
2017-07-03T22:15:30.074Z,63.40
2017-07-03T22:17:57.351Z,63.70
2017-07-03T22:20:24.242Z,63.60
2017-07-03T22:22:51.208Z,63.60
2017-07-03T22:25:18.495Z,64.30
2017-07-03T22:27:45.451Z,64.30
2017-07-03T22:30:12.400Z,64.50
2017-07-03T22:32:39.302Z,64.20
2017-07-03T22:35:06.656Z,64.20
2017-07-03T22:37:33.632Z,64.20
2017-07-03T22:40:00.517Z,64.60
2017-07-03T22:42:27.497Z,64.50
2017-07-03T22:44:54.966Z,65.10
2017-07-03T22:47:22.249Z,65.20
2017-07-03T22:49:49.154Z,65.20
2017-07-03T22:52:16.506Z,64.40
2017-07-03T22:54:43.389Z,64.30
2017-07-03T22:57:10.387Z,64.70
2017-07-03T22:59:37.314Z,64.60
2017-07-03T23:02:04.594Z,64.60
2017-07-03T23:04:31.554Z,64.60
2017-07-03T23:06:58.542Z,64.50
2017-07-03T23:09:25.822Z,64.30
2017-07-03T23:11:52.729Z,64.30
2017-07-03T23:14:19.663Z,64.80
2017-07-03T23:16:46.636Z,65.10
2017-07-03T23:19:13.577Z,64.90
2017-07-03T23:21:40.518Z,64.90
2017-07-03T23:24:07.470Z,64.90
2017-07-03T23:26:34.355Z,64.90
2017-07-03T23:29:01.407Z,65.00
2017-07-03T23:31:28.293Z,65.50
2017-07-03T23:33:55.189Z,65.30
2017-07-03T23:36:22.133Z,64.90
2017-07-03T23:38:49.018Z,65.00
2017-07-03T23:41:15.998Z,64.90
2017-07-03T23:43:42.993Z,64.70
2017-07-03T23:46:09.884Z,64.70
2017-07-03T23:48:36.765Z,64.50
2017-07-03T23:51:03.734Z,64.60
2017-07-03T23:53:31.082Z,65.10
2017-07-03T23:55:57.969Z,65.10
2017-07-03T23:58:24.984Z,65.20
